»·PEaware :: N723CE KTLR-KLGB

N723CE :: KTLR-KLGB

FLIGHT INFORMATION

Flight Status: Arrived
Operator: Privately registered:
United States
More flights under this callsign
Pilot: Daniel B. (28719)
Aircraft: CESSNA 172 SKYHAWK
(C172)
More flights by this aircraft type
Origin: KTLR Mefford
United States
Destination: KLGB Long Beach
United States
More flights between these airports :: More routes between these airports
Route: LHS V459 SLI
File this flight plan on PilotEdge
Remarks:
Altitude:
(Current/Filed)
11,000ft
Speed:
(Current/Filed)
115kts
Departed: 16-Jan-21 10:55 AM
Arrived: 16-Jan-21 12:40 PM
Distance/Time
Traveled:
152nm/1:44
Distance/Time
To Go:
Arrived

Flight Plot

Page will automatically refresh every two minutes.

Flight plan parsing failed; only flown route is shown


Map Options




Map Legend


Flown Route
Filed Route
Departure Airport
Arrival Airport
Navaid (VOR, NDB)
Fix

Horizontal Profiles

Position Reports

Time Latitude Longitude Heading Altitude Ground
Speed
16-Jan-21 10:30 36.155526 -119.328398 326 273ft 0kts
16-Jan-21 10:31 36.155526 -119.328398 326 273ft 0kts
16-Jan-21 10:32 36.155526 -119.328398 326 273ft 0kts
16-Jan-21 10:33 36.155526 -119.328398 326 273ft 0kts
16-Jan-21 10:34 36.155526 -119.328398 326 273ft 0kts
16-Jan-21 10:35 36.155526 -119.328398 326 273ft 0kts
16-Jan-21 10:36 36.155526 -119.328398 326 273ft 0kts
16-Jan-21 10:37 36.155527 -119.328399 325 273ft 0kts
16-Jan-21 10:38 36.155527 -119.328399 325 273ft 0kts
16-Jan-21 10:39 36.155527 -119.328399 325 273ft 0kts
16-Jan-21 10:40 36.155527 -119.328399 325 273ft 0kts
16-Jan-21 10:41 36.155527 -119.328399 325 273ft 0kts
16-Jan-21 10:42 36.155527 -119.328399 325 273ft 0kts
16-Jan-21 10:43 36.155527 -119.328399 325 273ft 0kts
16-Jan-21 10:44 36.155527 -119.328399 325 273ft 0kts
16-Jan-21 10:45 36.155528 -119.328400 325 273ft 0kts
16-Jan-21 10:46 36.156012 -119.328017 49 273ft 7kts
16-Jan-21 10:47 36.159343 -119.329632 323 275ft 12kts
16-Jan-21 10:48 36.160755 -119.330653 47 273ft 0kts
16-Jan-21 10:49 36.160755 -119.330653 47 273ft 0kts
16-Jan-21 10:50 36.160755 -119.330653 47 273ft 0kts
16-Jan-21 10:51 36.160755 -119.330653 47 273ft 0kts
16-Jan-21 10:52 36.160755 -119.330653 47 273ft 0kts
16-Jan-21 10:53 36.160755 -119.330653 47 273ft 0kts
16-Jan-21 10:54 36.156923 -119.326890 146 355ft 70kts
16-Jan-21 10:55 36.135611 -119.315232 160 1188ft 88kts
16-Jan-21 10:56 36.111736 -119.307898 153 2073ft 89kts
16-Jan-21 10:57 36.090396 -119.295162 149 2966ft 83kts
16-Jan-21 10:58 36.068878 -119.284327 153 3769ft 85kts
16-Jan-21 10:59 36.046997 -119.273153 147 4514ft 86kts
16-Jan-21 11:00 36.025028 -119.260897 148 5210ft 88kts
16-Jan-21 11:01 36.002292 -119.248526 146 5860ft 90kts
16-Jan-21 11:02 35.979080 -119.235461 152 6477ft 95kts
16-Jan-21 11:03 35.953626 -119.225331 148 7160ft 97kts
16-Jan-21 11:04 35.928344 -119.212398 142 7799ft 99kts
16-Jan-21 11:05 35.902964 -119.197005 142 8405ft 104kts
16-Jan-21 11:06 35.876625 -119.180632 140 8953ft 108kts
16-Jan-21 11:07 35.848928 -119.164135 148 9465ft 114kts
16-Jan-21 11:08 35.818524 -119.150332 154 9952ft 119kts
16-Jan-21 11:09 35.786468 -119.137930 152 10413ft 122kts
16-Jan-21 11:10 35.754355 -119.123472 162 10846ft 125kts
16-Jan-21 11:11 35.719808 -119.106067 159 11000ft 146kts
16-Jan-21 11:13 35.681413 -119.085425 158 10999ft 153kts
16-Jan-21 11:14 35.642537 -119.063800 154 11001ft 153kts
16-Jan-21 11:15 35.602775 -119.045522 152 10952ft 150kts
16-Jan-21 11:16 35.564588 -119.026137 154 11006ft 148kts
16-Jan-21 11:17 35.526484 -119.007482 153 11035ft 147kts
16-Jan-21 11:18 35.488594 -118.988261 154 11029ft 146kts
16-Jan-21 11:19 35.451059 -118.970046 153 11024ft 145kts
16-Jan-21 11:20 35.414788 -118.949271 150 10992ft 142kts
16-Jan-21 11:21 35.379825 -118.927485 148 10970ft 139kts
16-Jan-21 11:22 35.345370 -118.906341 155 10946ft 138kts
16-Jan-21 11:23 35.309401 -118.891575 161 10951ft 136kts
16-Jan-21 11:24 35.274076 -118.875840 155 10952ft 133kts
16-Jan-21 11:25 35.240518 -118.858907 153 11028ft 130kts
16-Jan-21 11:26 35.207400 -118.840712 155 11043ft 129kts
16-Jan-21 11:26 35.179762 -118.826609 152 11048ft 129kts
16-Jan-21 11:27 35.147449 -118.807844 156 11041ft 128kts
16-Jan-21 11:29 35.108494 -118.790475 161 10977ft 126kts
16-Jan-21 11:30 35.075082 -118.778206 164 10945ft 125kts
16-Jan-21 11:30 35.047915 -118.766695 157 10953ft 124kts
16-Jan-21 11:31 35.015832 -118.751543 158 10964ft 124kts
16-Jan-21 11:32 34.983346 -118.735570 153 10963ft 127kts
16-Jan-21 11:33 34.950377 -118.718438 154 10996ft 132kts
16-Jan-21 11:34 34.915715 -118.701046 155 11008ft 138kts
16-Jan-21 11:35 34.879724 -118.682384 155 10984ft 142kts
16-Jan-21 11:36 34.843431 -118.662729 155 11000ft 142kts
16-Jan-21 11:37 34.806945 -118.643871 158 11004ft 143kts
16-Jan-21 11:38 34.769969 -118.625070 155 10969ft 144kts
16-Jan-21 11:39 34.733183 -118.606008 157 10971ft 142kts
16-Jan-21 11:40 34.696334 -118.587697 155 10966ft 143kts
16-Jan-21 11:41 34.659943 -118.567372 156 10959ft 144kts
16-Jan-21 11:42 34.623841 -118.545793 150 10949ft 144kts
16-Jan-21 11:43 34.589339 -118.524163 151 11102ft 140kts
16-Jan-21 11:44 34.554054 -118.501971 152 11066ft 143kts
16-Jan-21 11:45 34.518236 -118.481083 154 11038ft 142kts
16-Jan-21 11:46 34.482946 -118.460430 152 11075ft 140kts
16-Jan-21 11:47 34.447765 -118.440212 157 11095ft 140kts
16-Jan-21 11:48 34.412029 -118.420680 154 11092ft 140kts
16-Jan-21 11:49 34.376897 -118.401179 155 10702ft 131kts
16-Jan-21 11:50 34.344789 -118.383408 152 10069ft 124kts
16-Jan-21 11:51 34.314342 -118.365188 150 9479ft 121kts
16-Jan-21 11:52 34.284843 -118.346993 151 8995ft 119kts
16-Jan-21 11:53 34.255065 -118.327296 148 9017ft 136kts
16-Jan-21 11:54 34.224986 -118.306978 154 9008ft 140kts
16-Jan-21 11:55 34.195107 -118.291214 157 8953ft 131kts
16-Jan-21 11:56 34.168309 -118.277319 155 9001ft 128kts
16-Jan-21 11:57 34.142645 -118.264594 157 9099ft 130kts
16-Jan-21 11:58 34.118083 -118.251523 154 9045ft 136kts
16-Jan-21 11:59 34.094075 -118.237031 152 8997ft 135kts
16-Jan-21 12:00 34.070704 -118.223176 158 8971ft 131kts
16-Jan-21 12:01 34.047629 -118.224644 193 8531ft 113kts
16-Jan-21 12:02 34.028434 -118.228413 193 8126ft 100kts
16-Jan-21 12:03 34.010388 -118.232191 192 7718ft 97kts
16-Jan-21 12:04 33.992513 -118.236065 193 7325ft 93kts
16-Jan-21 12:05 33.975325 -118.240109 192 7023ft 101kts
16-Jan-21 12:06 33.953632 -118.245056 192 7025ft 125kts
16-Jan-21 12:07 33.929016 -118.251063 191 7057ft 129kts
16-Jan-21 12:08 33.902055 -118.257597 191 7030ft 132kts
16-Jan-21 12:09 33.873340 -118.264876 193 6994ft 134kts
16-Jan-21 12:10 33.842468 -118.271776 189 6978ft 133kts
16-Jan-21 12:11 33.808367 -118.276178 185 6972ft 132kts
16-Jan-21 12:12 33.767923 -118.284646 191 6977ft 130kts
16-Jan-21 12:13 33.717721 -118.294807 192 6982ft 129kts
16-Jan-21 12:14 33.650996 -118.308104 193 7035ft 129kts
16-Jan-21 12:15 33.580617 -118.325958 194 6993ft 130kts
16-Jan-21 12:16 33.513063 -118.342023 195 7035ft 128kts
16-Jan-21 12:17 33.479273 -118.336903 123 6599ft 124kts
16-Jan-21 12:18 33.485349 -118.304501 43 5924ft 105kts
16-Jan-21 12:19 33.504367 -118.277930 44 5274ft 105kts
16-Jan-21 12:20 33.524473 -118.250114 44 5083ft 118kts
16-Jan-21 12:21 33.546791 -118.220371 43 5039ft 119kts
16-Jan-21 12:22 33.568638 -118.191685 45 4813ft 113kts
16-Jan-21 12:23 33.586955 -118.164919 46 4193ft 102kts
16-Jan-21 12:24 33.605865 -118.139496 44 3636ft 102kts
16-Jan-21 12:25 33.623875 -118.113185 43 3117ft 101kts
16-Jan-21 12:26 33.640137 -118.089220 44 2983ft 92kts
16-Jan-21 12:27 33.657106 -118.070492 43 3092ft 99kts
16-Jan-21 12:28 33.672100 -118.051973 41 3101ft 106kts
16-Jan-21 12:29 33.690198 -118.041186 352 2963ft 107kts
16-Jan-21 12:30 33.710080 -118.043896 349 2752ft 112kts
16-Jan-21 12:31 33.730048 -118.045686 338 2416ft 114kts
16-Jan-21 12:32 33.745387 -118.064022 310 1934ft 108kts
16-Jan-21 12:33 33.759341 -118.080749 315 1592ft 98kts
16-Jan-21 12:34 33.772141 -118.096163 314 1247ft 104kts
16-Jan-21 12:35 33.784496 -118.111006 316 848ft 105kts
16-Jan-21 12:36 33.796159 -118.125173 315 519ft 101kts
16-Jan-21 12:37 33.805745 -118.136726 314 239ft 70kts
16-Jan-21 12:38 33.812292 -118.144740 313 47ft 57kts
16-Jan-21 12:39 33.814928 -118.149064 269 37ft 15kts
16-Jan-21 12:40 33.814928 -118.149320 269 37ft 0kts
16-Jan-21 12:41 33.814928 -118.149343 269 37ft 0kts
16-Jan-21 12:42 33.814665 -118.150958 194 38ft 12kts
16-Jan-21 12:43 33.812593 -118.151177 179 39ft 6kts
16-Jan-21 12:44 33.812295 -118.151676 254 40ft 0kts

Navigation Log

Ident Type
Flight plan parsing failed, navigation log unavailable